Time;durP1;ratioP1;P1;durP2;ratioP2;P2;SDS_P1;SDS_P2;PMS_P1;PMS_P2;Temp;Humidity;BMP_temperature;BMP_pressure;BME280_temperature;BME280_humidity;BME280_pressure;Samples;Min_cycle;Max_cycle;Signal;HPM_P1;HPM_P2
2024/03/19 00:01:18;;;;;;;;;;;8.30;99.90;;;;;;4973933;28;20012;-63
2024/03/19 00:03:44;;;;;;;;;;;8.30;99.90;;;;;;4969115;28;19941;-63
2024/03/19 00:06:10;;;;;;;;;;;8.30;99.90;;;;;;4957099;28;19933;-63
2024/03/19 00:08:36;;;;;;;;;;;8.30;99.90;;;;;;4962806;28;20317;-64
2024/03/19 00:11:02;;;;;;;;;;;8.30;99.90;;;;;;4968096;28;19926;-63
2024/03/19 00:13:28;;;;;;;;;;;8.30;99.90;;;;;;4956873;28;19933;-63
2024/03/19 00:15:54;;;;;;;;;;;8.30;99.90;;;;;;4959120;28;19984;-64
2024/03/19 00:18:20;;;;;;;;;;;8.20;99.90;;;;;;4956267;28;19930;-64
2024/03/19 00:20:45;;;;;;;;;;;8.20;99.90;;;;;;4960921;28;19926;-63
2024/03/19 00:23:11;;;;;;;;;;;8.20;99.90;;;;;;4964368;28;19926;-63
2024/03/19 00:25:37;;;;;;;;;;;8.20;99.90;;;;;;4965018;28;19933;-63
2024/03/19 00:28:03;;;;;;;;;;;8.30;99.90;;;;;;4963820;28;20012;-64
2024/03/19 00:30:29;;;;;;;;;;;8.20;99.90;;;;;;4967855;28;19926;-63
2024/03/19 00:32:55;;;;;;;;;;;8.20;99.90;;;;;;4966101;28;20284;-63
2024/03/19 00:35:22;;;;;;;;;;;8.20;99.90;;;;;;4968204;28;19953;-63
2024/03/19 00:37:49;;;;;;;;;;;8.20;99.90;;;;;;4966068;28;19926;-63
2024/03/19 00:40:15;;;;;;;;;;;8.20;99.90;;;;;;4973308;28;20599;-63
2024/03/19 00:42:41;;;;;;;;;;;8.20;99.90;;;;;;4961625;28;19973;-63
2024/03/19 00:45:08;;;;;;;;;;;8.20;99.90;;;;;;4957706;28;19926;-63
2024/03/19 00:47:34;;;;;;;;;;;8.20;99.90;;;;;;4967174;28;19934;-63
2024/03/19 00:49:59;;;;;;;;;;;8.20;99.90;;;;;;4948666;28;19930;-63
2024/03/19 00:52:26;;;;;;;;;;;8.20;99.90;;;;;;4979783;28;20294;-63
2024/03/19 00:54:52;;;;;;;;;;;8.20;99.90;;;;;;4967955;28;19984;-63
2024/03/19 00:57:18;;;;;;;;;;;8.20;99.90;;;;;;4969183;28;19930;-63
2024/03/19 00:59:44;;;;;;;;;;;8.20;99.90;;;;;;4969958;28;19930;-63
2024/03/19 01:02:10;;;;;;;;;;;8.20;99.90;;;;;;4958908;28;20022;-63
2024/03/19 01:04:36;;;;;;;;;;;8.20;99.90;;;;;;4973481;28;19934;-63
2024/03/19 01:07:02;;;;;;;;;;;8.30;99.90;;;;;;4964207;28;20426;-63
2024/03/19 01:09:27;;;;;;;;;;;8.30;99.90;;;;;;4960908;28;19973;-63
2024/03/19 01:11:54;;;;;;;;;;;8.30;99.90;;;;;;4964960;28;19976;-63
2024/03/19 01:14:20;;;;;;;;;;;8.30;99.90;;;;;;4964182;28;19969;-63
2024/03/19 01:16:46;;;;;;;;;;;8.30;99.90;;;;;;4964957;28;20394;-63
2024/03/19 01:19:12;;;;;;;;;;;8.40;99.90;;;;;;4969356;28;19981;-63
2024/03/19 01:21:38;;;;;;;;;;;8.40;99.90;;;;;;4968773;28;20301;-62
2024/03/19 01:24:06;;;;;;;;;;;8.40;99.90;;;;;;4968989;28;19985;-63
2024/03/19 01:26:34;;;;;;;;;;;8.40;99.90;;;;;;4982420;28;19934;-63
2024/03/19 01:29:00;;;;;;;;;;;8.40;99.90;;;;;;4958131;28;19930;-64
2024/03/19 01:31:28;;;;;;;;;;;8.40;99.90;;;;;;4965938;28;20372;-63
2024/03/19 01:33:57;;;;;;;;;;;8.30;99.90;;;;;;4975820;28;19961;-63
2024/03/19 01:36:24;;;;;;;;;;;8.30;99.90;;;;;;4964322;28;19984;-63
2024/03/19 01:38:50;;;;;;;;;;;8.30;99.90;;;;;;4949170;28;19926;-63
2024/03/19 01:41:16;;;;;;;;;;;8.30;99.90;;;;;;4968567;28;19930;-63
2024/03/19 01:43:46;;;;;;;;;;;8.30;99.90;;;;;;4968567;28;19980;-63
2024/03/19 01:46:14;;;;;;;;;;;8.30;99.90;;;;;;4958373;28;19972;-68
2024/03/19 01:48:40;;;;;;;;;;;8.30;99.90;;;;;;4969520;28;19930;-63
2024/03/19 01:51:07;;;;;;;;;;;8.30;99.90;;;;;;4969354;28;19926;-63
2024/03/19 01:53:33;;;;;;;;;;;8.30;99.90;;;;;;4968742;28;20012;-64
2024/03/19 01:55:59;;;;;;;;;;;8.40;99.90;;;;;;4963696;28;19930;-63
2024/03/19 01:58:26;;;;;;;;;;;8.40;99.90;;;;;;4959208;28;20345;-64
2024/03/19 02:00:52;;;;;;;;;;;8.40;99.90;;;;;;4973348;28;19988;-64
2024/03/19 02:03:18;;;;;;;;;;;8.40;99.90;;;;;;4956400;28;20025;-63
2024/03/19 02:05:45;;;;;;;;;;;8.40;99.90;;;;;;4964572;28;19934;-63
2024/03/19 02:08:12;;;;;;;;;;;8.40;99.90;;;;;;4980288;28;19926;-63
2024/03/19 02:10:38;;;;;;;;;;;8.40;99.90;;;;;;4965094;28;19929;-63
2024/03/19 02:13:04;;;;;;;;;;;8.40;99.90;;;;;;4959455;28;19933;-63
2024/03/19 02:15:30;;;;;;;;;;;8.40;99.90;;;;;;4966494;28;19952;-63
2024/03/19 02:17:56;;;;;;;;;;;8.40;99.90;;;;;;4966663;28;19933;-64
2024/03/19 02:20:22;;;;;;;;;;;8.40;99.90;;;;;;4963750;28;19926;-63
2024/03/19 02:22:49;;;;;;;;;;;8.40;99.90;;;;;;4971427;28;19980;-63
2024/03/19 02:25:16;;;;;;;;;;;8.40;99.90;;;;;;4956117;28;19933;-64
2024/03/19 02:27:43;;;;;;;;;;;8.40;99.90;;;;;;4958665;28;19934;-64
2024/03/19 02:30:09;;;;;;;;;;;8.40;99.90;;;;;;4962303;28;20314;-63
2024/03/19 02:32:35;;;;;;;;;;;8.40;99.90;;;;;;4972995;28;19934;-63
2024/03/19 02:35:01;;;;;;;;;;;8.40;99.90;;;;;;4963045;28;20373;-63
2024/03/19 02:37:27;;;;;;;;;;;8.40;99.90;;;;;;4968426;28;19961;-63
2024/03/19 02:39:53;;;;;;;;;;;8.40;99.90;;;;;;4965516;28;19926;-64
2024/03/19 02:42:22;;;;;;;;;;;8.40;99.90;;;;;;4983777;28;19925;-64
2024/03/19 02:44:48;;;;;;;;;;;8.40;99.90;;;;;;4969098;28;19932;-63
2024/03/19 02:47:14;;;;;;;;;;;8.30;99.90;;;;;;4968064;28;19951;-63
2024/03/19 02:49:39;;;;;;;;;;;8.30;99.90;;;;;;4980052;28;19973;-63
2024/03/19 02:52:05;;;;;;;;;;;8.30;99.90;;;;;;4966454;28;20386;-63
2024/03/19 02:54:31;;;;;;;;;;;8.30;99.90;;;;;;4956738;28;19937;-64
2024/03/19 02:56:57;;;;;;;;;;;8.30;99.90;;;;;;4971782;28;19930;-63
2024/03/19 02:59:23;;;;;;;;;;;8.30;99.90;;;;;;4974097;28;19960;-63
2024/03/19 03:01:49;;;;;;;;;;;8.30;99.90;;;;;;4958071;28;20012;-63
2024/03/19 03:04:15;;;;;;;;;;;8.30;99.90;;;;;;4962792;28;19937;-63
2024/03/19 03:06:41;;;;;;;;;;;8.40;99.90;;;;;;4967665;28;19930;-63
2024/03/19 03:09:09;;;;;;;;;;;8.30;99.90;;;;;;4956701;28;19933;-63
2024/03/19 03:11:35;;;;;;;;;;;8.30;99.90;;;;;;4967206;28;19929;-63
2024/03/19 03:14:01;;;;;;;;;;;8.30;99.90;;;;;;4962182;28;19926;-63
2024/03/19 03:16:26;;;;;;;;;;;8.30;99.90;;;;;;4968621;28;20381;-63
2024/03/19 03:18:52;;;;;;;;;;;8.30;99.90;;;;;;4948099;28;19926;-64
2024/03/19 03:21:18;;;;;;;;;;;8.30;99.90;;;;;;4958087;28;19957;-64
2024/03/19 03:23:44;;;;;;;;;;;8.30;99.90;;;;;;4957953;28;20434;-64
2024/03/19 03:26:10;;;;;;;;;;;8.30;99.90;;;;;;4962118;28;19926;-64
2024/03/19 03:28:36;;;;;;;;;;;8.30;99.90;;;;;;4961621;28;20557;-64
2024/03/19 03:31:04;;;;;;;;;;;8.30;99.90;;;;;;4968654;28;19929;-64
2024/03/19 03:33:33;;;;;;;;;;;8.30;99.90;;;;;;4956571;28;19948;-64
2024/03/19 03:35:59;;;;;;;;;;;8.30;99.90;;;;;;4965907;28;19937;-64
2024/03/19 03:38:25;;;;;;;;;;;8.30;99.90;;;;;;4963202;28;19930;-64
2024/03/19 03:40:53;;;;;;;;;;;8.30;99.90;;;;;;4970560;28;19933;-64
2024/03/19 03:43:20;;;;;;;;;;;8.20;99.90;;;;;;4962028;28;20399;-64
2024/03/19 03:45:46;;;;;;;;;;;8.20;99.90;;;;;;4960719;28;19969;-64
2024/03/19 03:48:12;;;;;;;;;;;8.20;99.90;;;;;;4955043;28;20302;-64
2024/03/19 03:50:37;;;;;;;;;;;8.20;99.90;;;;;;4946542;28;19930;-64
2024/03/19 03:53:03;;;;;;;;;;;8.20;99.90;;;;;;4957650;28;19934;-63
2024/03/19 03:55:29;;;;;;;;;;;8.20;99.90;;;;;;4956234;28;19926;-64
2024/03/19 03:57:55;;;;;;;;;;;8.20;99.90;;;;;;4963844;28;19950;-63
2024/03/19 04:00:22;;;;;;;;;;;8.20;99.90;;;;;;4967193;28;19930;-64
2024/03/19 04:02:48;;;;;;;;;;;8.20;99.90;;;;;;4967298;28;19948;-64
2024/03/19 04:05:14;;;;;;;;;;;8.20;99.90;;;;;;4966074;28;19933;-64
2024/03/19 04:07:41;;;;;;;;;;;8.20;99.90;;;;;;4979606;28;19965;-64
2024/03/19 04:10:07;;;;;;;;;;;8.20;99.90;;;;;;4962308;28;19925;-64
2024/03/19 04:12:33;;;;;;;;;;;8.20;99.90;;;;;;4955674;28;19934;-64
2024/03/19 04:14:59;;;;;;;;;;;8.20;99.90;;;;;;4970758;28;19937;-64
2024/03/19 04:17:25;;;;;;;;;;;8.20;99.90;;;;;;4960541;28;19930;-64
2024/03/19 04:19:51;;;;;;;;;;;8.10;99.90;;;;;;4967614;28;19984;-64
2024/03/19 04:22:16;;;;;;;;;;;8.10;99.90;;;;;;4964824;28;19940;-64
2024/03/19 04:24:42;;;;;;;;;;;8.10;99.90;;;;;;4971332;28;19926;-64
2024/03/19 04:27:08;;;;;;;;;;;8.20;99.90;;;;;;4970044;28;20452;-64
2024/03/19 04:29:34;;;;;;;;;;;8.10;99.90;;;;;;4976196;28;19926;-64
2024/03/19 04:32:01;;;;;;;;;;;8.10;99.90;;;;;;4958790;28;19925;-64
2024/03/19 04:34:27;;;;;;;;;;;8.10;99.90;;;;;;4971664;28;20425;-64
2024/03/19 04:36:53;;;;;;;;;;;8.10;99.90;;;;;;4975732;28;19980;-64
2024/03/19 04:39:19;;;;;;;;;;;8.10;99.90;;;;;;4961060;28;20402;-64
2024/03/19 04:41:46;;;;;;;;;;;8.10;99.90;;;;;;4963831;28;20428;-64
2024/03/19 04:44:12;;;;;;;;;;;8.10;99.90;;;;;;4964422;28;19926;-64
2024/03/19 04:46:38;;;;;;;;;;;8.10;99.90;;;;;;4963305;28;19932;-64
2024/03/19 04:49:03;;;;;;;;;;;8.10;99.90;;;;;;4960287;28;19977;-64
2024/03/19 04:51:30;;;;;;;;;;;8.10;99.90;;;;;;4959718;28;19929;-64
2024/03/19 04:53:55;;;;;;;;;;;8.10;99.90;;;;;;4969614;28;19949;-64
2024/03/19 04:56:21;;;;;;;;;;;8.10;99.90;;;;;;4968081;28;19932;-63
2024/03/19 04:58:47;;;;;;;;;;;8.10;99.90;;;;;;4971645;28;20405;-64
2024/03/19 05:01:14;;;;;;;;;;;8.10;99.90;;;;;;4967629;28;20390;-63
2024/03/19 05:03:40;;;;;;;;;;;8.10;99.90;;;;;;4966932;28;19948;-64
2024/03/19 05:06:08;;;;;;;;;;;8.10;99.90;;;;;;4958731;28;19937;-64
2024/03/19 05:08:40;;;;;;;;;;;8.00;99.90;;;;;;4961910;28;19961;-64
2024/03/19 05:11:06;;;;;;;;;;;8.00;99.90;;;;;;4974400;28;20364;-65
2024/03/19 05:13:32;;;;;;;;;;;8.10;99.90;;;;;;4972654;28;20373;-64
2024/03/19 05:15:58;;;;;;;;;;;8.00;99.90;;;;;;4975470;28;19926;-65
2024/03/19 05:18:24;;;;;;;;;;;8.10;99.90;;;;;;4972583;28;19962;-64
2024/03/19 05:20:50;;;;;;;;;;;8.10;99.90;;;;;;4974990;28;19925;-64
2024/03/19 05:23:16;;;;;;;;;;;8.10;99.90;;;;;;4956122;28;19973;-64
2024/03/19 05:25:42;;;;;;;;;;;8.20;99.90;;;;;;4958577;28;20428;-64
2024/03/19 05:28:08;;;;;;;;;;;8.20;99.90;;;;;;4960213;28;20401;-64
2024/03/19 05:30:34;;;;;;;;;;;8.20;99.90;;;;;;4956283;28;20409;-63
2024/03/19 05:33:02;;;;;;;;;;;8.20;99.90;;;;;;4959479;28;20482;-64
2024/03/19 05:35:28;;;;;;;;;;;8.20;99.90;;;;;;4961640;28;19926;-63
2024/03/19 05:37:54;;;;;;;;;;;8.20;99.90;;;;;;4957453;28;20310;-64
2024/03/19 05:40:20;;;;;;;;;;;8.20;99.90;;;;;;4973623;28;19926;-64
2024/03/19 05:42:46;;;;;;;;;;;8.20;99.90;;;;;;4973303;28;19933;-64
2024/03/19 05:45:12;;;;;;;;;;;8.20;99.90;;;;;;4970259;28;20013;-63
2024/03/19 05:47:39;;;;;;;;;;;8.20;99.90;;;;;;4967487;28;19933;-64
2024/03/19 05:50:08;;;;;;;;;;;8.20;99.90;;;;;;4971881;28;19926;-64
2024/03/19 05:52:34;;;;;;;;;;;8.10;99.90;;;;;;4967989;28;19980;-64
2024/03/19 05:55:00;;;;;;;;;;;8.10;99.90;;;;;;4964605;28;19934;-64
2024/03/19 05:57:26;;;;;;;;;;;8.10;99.90;;;;;;4971858;28;19941;-64
2024/03/19 05:59:52;;;;;;;;;;;8.10;99.90;;;;;;4967093;28;19930;-64
2024/03/19 06:02:17;;;;;;;;;;;8.10;99.90;;;;;;4969597;28;19926;-64
2024/03/19 06:04:44;;;;;;;;;;;8.00;99.90;;;;;;4950233;28;19936;-64
2024/03/19 06:07:10;;;;;;;;;;;8.00;99.90;;;;;;4969481;28;19930;-64
2024/03/19 06:09:43;;;;;;;;;;;8.00;99.90;;;;;;4965053;28;20029;-64
2024/03/19 06:12:12;;;;;;;;;;;8.00;99.90;;;;;;4973571;28;20508;-63
2024/03/19 06:14:39;;;;;;;;;;;8.00;99.90;;;;;;4972725;28;20318;-64
2024/03/19 06:17:06;;;;;;;;;;;8.10;99.90;;;;;;4953620;28;19929;-64
2024/03/19 06:19:35;;;;;;;;;;;8.10;99.90;;;;;;4963522;28;20287;-64
2024/03/19 06:22:01;;;;;;;;;;;8.20;99.90;;;;;;4959189;28;19936;-64
2024/03/19 06:24:27;;;;;;;;;;;8.20;99.90;;;;;;4987985;28;19925;-64
2024/03/19 06:26:53;;;;;;;;;;;8.20;99.90;;;;;;4961811;28;19926;-64
2024/03/19 06:29:19;;;;;;;;;;;8.20;99.90;;;;;;4958014;28;20402;-64
2024/03/19 06:31:45;;;;;;;;;;;8.20;99.90;;;;;;4967210;28;19965;-64
2024/03/19 06:34:11;;;;;;;;;;;8.20;99.90;;;;;;4948986;28;20402;-64
2024/03/19 06:36:38;;;;;;;;;;;8.30;99.90;;;;;;4957651;28;19930;-63
2024/03/19 06:39:04;;;;;;;;;;;8.30;99.90;;;;;;4971896;28;19929;-64
2024/03/19 06:41:33;;;;;;;;;;;8.30;99.90;;;;;;4963725;28;20012;-64
2024/03/19 06:43:58;;;;;;;;;;;8.30;99.90;;;;;;4968169;28;19925;-64
2024/03/19 06:46:24;;;;;;;;;;;8.30;99.90;;;;;;4984376;28;19992;-64
2024/03/19 06:48:50;;;;;;;;;;;8.40;99.90;;;;;;4957579;28;19929;-63
2024/03/19 06:51:16;;;;;;;;;;;8.30;99.90;;;;;;4957265;28;19929;-64
2024/03/19 06:53:42;;;;;;;;;;;8.30;99.90;;;;;;4961413;28;20016;-63
2024/03/19 06:56:09;;;;;;;;;;;8.40;99.90;;;;;;4949139;28;20389;-64
2024/03/19 06:58:36;;;;;;;;;;;8.40;99.90;;;;;;4963621;28;19976;-64
2024/03/19 07:01:02;;;;;;;;;;;8.40;99.90;;;;;;4968385;28;20469;-64
2024/03/19 07:03:28;;;;;;;;;;;8.50;99.90;;;;;;4966492;28;19934;-64
2024/03/19 07:05:54;;;;;;;;;;;8.50;99.90;;;;;;4955758;28;20387;-64
2024/03/19 07:08:20;;;;;;;;;;;8.50;99.90;;;;;;4956009;28;20321;-64
2024/03/19 07:10:47;;;;;;;;;;;8.60;99.90;;;;;;4966703;28;19930;-64
2024/03/19 07:13:14;;;;;;;;;;;8.60;99.90;;;;;;4973581;28;19925;-64
2024/03/19 07:15:40;;;;;;;;;;;8.60;99.90;;;;;;4966184;28;19926;-64
2024/03/19 07:18:08;;;;;;;;;;;8.60;99.90;;;;;;4955870;28;19980;-64
2024/03/19 07:20:39;;;;;;;;;;;8.60;99.90;;;;;;4972621;28;19930;-63
2024/03/19 07:23:05;;;;;;;;;;;8.60;99.90;;;;;;4968464;28;19933;-63
2024/03/19 07:25:32;;;;;;;;;;;8.60;99.90;;;;;;4953851;28;19926;-63
2024/03/19 07:27:58;;;;;;;;;;;8.60;99.90;;;;;;4978524;28;19981;-63
2024/03/19 07:30:24;;;;;;;;;;;8.70;99.90;;;;;;4966259;28;19930;-63
2024/03/19 07:32:50;;;;;;;;;;;8.70;99.90;;;;;;4978368;28;19926;-64
2024/03/19 07:35:16;;;;;;;;;;;8.80;99.90;;;;;;4966836;28;19930;-64
2024/03/19 07:37:42;;;;;;;;;;;8.90;99.90;;;;;;4965029;28;20342;-64
2024/03/19 07:40:10;;;;;;;;;;;8.90;99.90;;;;;;4982069;28;19930;-64
2024/03/19 07:42:37;;;;;;;;;;;9.10;99.90;;;;;;4953655;28;20407;-64
2024/03/19 07:45:03;;;;;;;;;;;9.20;99.90;;;;;;4966475;28;19960;-64
2024/03/19 07:47:29;;;;;;;;;;;9.30;99.90;;;;;;4962378;28;19930;-64
2024/03/19 07:49:55;;;;;;;;;;;9.30;99.90;;;;;;4963145;28;19930;-64
2024/03/19 07:52:21;;;;;;;;;;;9.30;99.90;;;;;;4978096;28;19930;-64
2024/03/19 07:54:47;;;;;;;;;;;9.40;99.90;;;;;;4966991;28;19926;-64
2024/03/19 07:57:13;;;;;;;;;;;9.40;99.90;;;;;;4966918;28;19948;-64
2024/03/19 07:59:39;;;;;;;;;;;9.50;99.90;;;;;;4959801;28;20391;-64
2024/03/19 08:02:06;;;;;;;;;;;9.50;99.90;;;;;;4972255;28;19937;-64
2024/03/19 08:04:32;;;;;;;;;;;9.40;99.90;;;;;;4968699;28;20778;-64
2024/03/19 08:06:58;;;;;;;;;;;9.50;99.90;;;;;;4968435;28;19949;-64
2024/03/19 08:09:24;;;;;;;;;;;9.40;99.90;;;;;;4972504;28;19930;-64
2024/03/19 08:11:50;;;;;;;;;;;9.50;99.90;;;;;;4964571;28;20043;-64
2024/03/19 08:14:16;;;;;;;;;;;9.50;99.90;;;;;;4968749;28;19982;-64
2024/03/19 08:16:42;;;;;;;;;;;9.60;99.90;;;;;;4971521;28;19936;-64
2024/03/19 08:19:08;;;;;;;;;;;9.60;99.90;;;;;;4969094;28;19937;-64
2024/03/19 08:21:35;;;;;;;;;;;9.70;99.90;;;;;;4957675;28;19973;-64
2024/03/19 08:24:02;;;;;;;;;;;9.80;99.90;;;;;;4971875;28;19945;-64
2024/03/19 08:26:28;;;;;;;;;;;9.80;99.90;;;;;;4968254;28;19933;-64
2024/03/19 08:28:54;;;;;;;;;;;9.90;99.90;;;;;;4966602;28;20361;-64
2024/03/19 08:31:20;;;;;;;;;;;10.10;99.90;;;;;;4967105;28;20349;-64
2024/03/19 08:33:46;;;;;;;;;;;10.20;99.90;;;;;;4967368;28;19952;-64
2024/03/19 08:36:12;;;;;;;;;;;10.30;99.90;;;;;;4983760;28;19933;-64
2024/03/19 08:38:38;;;;;;;;;;;10.40;99.90;;;;;;4964696;28;19926;-64
2024/03/19 08:41:04;;;;;;;;;;;10.50;99.90;;;;;;4962734;28;19934;-64
2024/03/19 08:43:30;;;;;;;;;;;10.70;99.90;;;;;;4966416;28;19934;-64
2024/03/19 08:45:55;;;;;;;;;;;10.90;99.90;;;;;;4968230;28;20397;-64
2024/03/19 08:48:21;;;;;;;;;;;11.00;99.90;;;;;;4952937;28;19957;-64
2024/03/19 08:50:47;;;;;;;;;;;11.00;99.90;;;;;;4966483;28;19930;-64
2024/03/19 08:53:13;;;;;;;;;;;11.20;99.90;;;;;;4970755;28;19929;-64
2024/03/19 08:55:39;;;;;;;;;;;11.30;99.90;;;;;;4966079;28;19926;-64
2024/03/19 08:58:05;;;;;;;;;;;11.40;99.90;;;;;;4972321;28;19937;-64
2024/03/19 09:00:31;;;;;;;;;;;11.50;99.90;;;;;;4967757;28;19930;-64
2024/03/19 09:02:57;;;;;;;;;;;11.60;99.90;;;;;;4966354;28;20369;-64
2024/03/19 09:05:23;;;;;;;;;;;11.70;99.90;;;;;;4969522;28;20720;-63
2024/03/19 09:07:49;;;;;;;;;;;11.70;99.90;;;;;;4956248;28;19930;-64
2024/03/19 09:10:15;;;;;;;;;;;11.60;99.90;;;;;;4946282;28;20026;-64
2024/03/19 09:12:41;;;;;;;;;;;11.40;99.90;;;;;;4954903;28;19926;-64
2024/03/19 09:15:11;;;;;;;;;;;11.30;99.90;;;;;;4973312;28;19930;-63
2024/03/19 09:17:37;;;;;;;;;;;11.20;99.90;;;;;;4967243;28;19965;-64
2024/03/19 09:20:05;;;;;;;;;;;11.10;99.90;;;;;;4969301;28;19930;-64
2024/03/19 09:22:31;;;;;;;;;;;11.10;99.90;;;;;;4967948;28;20375;-64
2024/03/19 09:24:57;;;;;;;;;;;11.00;99.90;;;;;;4954142;28;19930;-64
2024/03/19 09:27:23;;;;;;;;;;;11.10;99.90;;;;;;4974060;28;19925;-64
2024/03/19 09:29:51;;;;;;;;;;;11.10;99.90;;;;;;4969911;28;19930;-64
2024/03/19 09:32:16;;;;;;;;;;;11.20;99.90;;;;;;4963005;28;19930;-64
2024/03/19 09:34:43;;;;;;;;;;;11.30;99.90;;;;;;4956363;28;20153;-64
2024/03/19 09:37:09;;;;;;;;;;;11.40;99.90;;;;;;4967339;28;20627;-63
2024/03/19 09:39:35;;;;;;;;;;;11.50;99.90;;;;;;4965458;28;19926;-63
2024/03/19 09:42:01;;;;;;;;;;;11.70;99.90;;;;;;4957049;28;19937;-63
2024/03/19 09:44:27;;;;;;;;;;;11.70;99.90;;;;;;4966964;28;19930;-64
2024/03/19 09:46:54;;;;;;;;;;;11.80;99.90;;;;;;4968534;28;19930;-63
2024/03/19 09:49:21;;;;;;;;;;;11.70;99.90;;;;;;4964494;28;19933;-64
2024/03/19 09:51:48;;;;;;;;;;;11.80;99.90;;;;;;4974619;28;20301;-63
2024/03/19 09:54:14;;;;;;;;;;;11.80;99.90;;;;;;4964486;28;20354;-63
2024/03/19 09:56:41;;;;;;;;;;;11.70;99.90;;;;;;4960551;28;20444;-63
2024/03/19 09:59:12;;;;;;;;;;;11.70;99.90;;;;;;4956292;28;20292;-63
2024/03/19 10:01:39;;;;;;;;;;;11.80;99.90;;;;;;4963060;28;19937;-63
2024/03/19 10:04:10;;;;;;;;;;;11.90;99.90;;;;;;4956769;28;19926;-63
2024/03/19 10:06:36;;;;;;;;;;;12.00;99.90;;;;;;4966711;28;19949;-63
2024/03/19 10:09:02;;;;;;;;;;;12.10;99.90;;;;;;4957897;28;20402;-64
2024/03/19 10:11:28;;;;;;;;;;;12.00;99.90;;;;;;4967626;28;19933;-63
2024/03/19 10:13:58;;;;;;;;;;;12.00;99.90;;;;;;4962596;28;19937;-63
2024/03/19 10:16:24;;;;;;;;;;;11.90;99.90;;;;;;4961621;28;20031;-64
2024/03/19 10:18:50;;;;;;;;;;;11.90;99.90;;;;;;4964795;28;19934;-64
2024/03/19 10:21:16;;;;;;;;;;;11.90;99.90;;;;;;4964038;28;20266;-64
2024/03/19 10:23:43;;;;;;;;;;;11.90;99.90;;;;;;4962812;28;20003;-64
2024/03/19 10:26:08;;;;;;;;;;;12.00;99.90;;;;;;4957802;28;19984;-64
2024/03/19 10:28:37;;;;;;;;;;;11.90;99.90;;;;;;4966760;28;19926;-63
2024/03/19 10:31:08;;;;;;;;;;;11.90;99.90;;;;;;4967329;28;20302;-64
2024/03/19 10:33:34;;;;;;;;;;;12.00;99.90;;;;;;4949654;28;20052;-64
2024/03/19 10:36:02;;;;;;;;;;;12.10;99.90;;;;;;4982341;28;20113;-63
2024/03/19 10:38:28;;;;;;;;;;;12.30;99.90;;;;;;4971187;28;19933;-64
2024/03/19 10:40:56;;;;;;;;;;;12.50;99.90;;;;;;4964810;28;20464;-64
2024/03/19 10:43:22;;;;;;;;;;;12.70;99.90;;;;;;4961090;28;19941;-63
2024/03/19 10:45:49;;;;;;;;;;;12.90;99.90;;;;;;4965754;28;19930;-64
2024/03/19 10:48:18;;;;;;;;;;;13.10;99.90;;;;;;4962024;28;19925;-64
2024/03/19 10:50:45;;;;;;;;;;;13.20;99.90;;;;;;4959439;28;19926;-63
2024/03/19 10:53:13;;;;;;;;;;;13.30;99.90;;;;;;4968041;28;19926;-64
2024/03/19 10:55:41;;;;;;;;;;;13.40;99.90;;;;;;4966235;28;20012;-64
2024/03/19 10:58:11;;;;;;;;;;;13.50;99.90;;;;;;4965697;28;19926;-64
2024/03/19 11:00:41;;;;;;;;;;;13.60;99.90;;;;;;4969649;28;20560;-64
2024/03/19 11:03:11;;;;;;;;;;;13.80;99.90;;;;;;4955482;28;20390;-63
2024/03/19 11:05:37;;;;;;;;;;;14.10;99.90;;;;;;4964385;28;19926;-64
2024/03/19 11:08:04;;;;;;;;;;;14.10;99.90;;;;;;4960487;28;19930;-64
2024/03/19 11:10:37;;;;;;;;;;;13.90;99.90;;;;;;4972513;28;20485;-64
2024/03/19 11:13:02;;;;;;;;;;;13.80;99.90;;;;;;4954406;28;19926;-64
2024/03/19 11:15:32;;;;;;;;;;;13.60;99.90;;;;;;4965016;28;20306;-63
2024/03/19 11:18:03;;;;;;;;;;;13.60;99.90;;;;;;4969567;28;19961;-64
2024/03/19 11:20:32;;;;;;;;;;;13.60;99.90;;;;;;4960229;28;19930;-63
2024/03/19 11:22:59;;;;;;;;;;;13.60;99.90;;;;;;4955664;28;19937;-64
2024/03/19 11:25:29;;;;;;;;;;;13.60;99.90;;;;;;4956105;28;19937;-64
2024/03/19 11:27:55;;;;;;;;;;;13.60;99.90;;;;;;4963564;28;19926;-64
2024/03/19 11:30:21;;;;;;;;;;;13.60;99.90;;;;;;4964117;28;20334;-64
2024/03/19 11:32:48;;;;;;;;;;;13.60;99.90;;;;;;4965662;28;20024;-64
2024/03/19 11:35:21;;;;;;;;;;;13.70;99.90;;;;;;4972308;28;19937;-63
2024/03/19 11:37:48;;;;;;;;;;;13.70;99.90;;;;;;4967026;28;20322;-63
2024/03/19 11:40:13;;;;;;;;;;;13.70;99.90;;;;;;4959177;28;20601;-64
2024/03/19 11:42:39;;;;;;;;;;;13.60;99.90;;;;;;4964525;28;19930;-64
2024/03/19 11:45:05;;;;;;;;;;;13.60;99.90;;;;;;4953768;28;19937;-64
2024/03/19 11:47:32;;;;;;;;;;;13.60;99.90;;;;;;4963570;28;19934;-64
2024/03/19 11:49:58;;;;;;;;;;;13.60;99.90;;;;;;4971458;28;19937;-64
2024/03/19 11:52:24;;;;;;;;;;;13.60;99.90;;;;;;4967436;28;19964;-63
2024/03/19 11:54:50;;;;;;;;;;;13.50;99.90;;;;;;4965749;28;19984;-64
2024/03/19 11:57:16;;;;;;;;;;;13.50;99.90;;;;;;4966367;28;20363;-63
2024/03/19 11:59:43;;;;;;;;;;;13.50;99.90;;;;;;4969962;28;19930;-63
2024/03/19 12:02:11;;;;;;;;;;;13.50;99.90;;;;;;4974323;28;19930;-64
2024/03/19 12:04:38;;;;;;;;;;;13.50;99.90;;;;;;4976776;28;20398;-64
2024/03/19 12:07:04;;;;;;;;;;;13.50;99.90;;;;;;4975599;28;19932;-64
2024/03/19 12:09:30;;;;;;;;;;;13.60;99.90;;;;;;4966523;28;19926;-64
2024/03/19 12:11:56;;;;;;;;;;;13.60;99.90;;;;;;4975602;28;19991;-64
2024/03/19 12:14:23;;;;;;;;;;;13.60;99.90;;;;;;4963095;28;19926;-63
2024/03/19 12:16:50;;;;;;;;;;;13.70;99.90;;;;;;4977523;28;19933;-64
2024/03/19 12:19:17;;;;;;;;;;;13.90;99.90;;;;;;4968964;28;19933;-64
2024/03/19 12:21:43;;;;;;;;;;;14.00;99.90;;;;;;4956635;28;20555;-64
2024/03/19 12:24:13;;;;;;;;;;;14.20;99.90;;;;;;4965728;28;20302;-64
2024/03/19 12:26:43;;;;;;;;;;;14.50;99.90;;;;;;4970910;28;19973;-64
2024/03/19 12:29:13;;;;;;;;;;;14.70;99.90;;;;;;4967484;28;20062;-64
2024/03/19 12:31:48;;;;;;;;;;;15.00;99.90;;;;;;4970525;28;19925;-63
2024/03/19 12:34:37;;;;;;;;;;;15.10;99.90;;;;;;4967348;28;19926;-64
2024/03/19 12:37:08;;;;;;;;;;;15.00;99.90;;;;;;4965007;28;19926;-64
2024/03/19 12:39:34;;;;;;;;;;;14.90;99.90;;;;;;4966963;28;19926;-64
2024/03/19 12:42:00;;;;;;;;;;;14.90;99.90;;;;;;4971116;28;19977;-63
2024/03/19 12:44:27;;;;;;;;;;;15.00;99.90;;;;;;4981645;28;19930;-64
2024/03/19 12:46:53;;;;;;;;;;;15.10;99.90;;;;;;4969975;28;20391;-63
2024/03/19 12:49:21;;;;;;;;;;;15.10;99.90;;;;;;4969079;28;19957;-64
2024/03/19 12:51:48;;;;;;;;;;;15.20;99.90;;;;;;4958242;28;19956;-63
2024/03/19 12:54:14;;;;;;;;;;;15.20;99.90;;;;;;4967847;28;19930;-64
2024/03/19 12:56:40;;;;;;;;;;;15.10;99.90;;;;;;4967028;28;19980;-64
2024/03/19 12:59:06;;;;;;;;;;;15.10;99.90;;;;;;4967881;28;19988;-64
2024/03/19 13:01:32;;;;;;;;;;;15.20;99.90;;;;;;4975066;28;19934;-63
2024/03/19 13:03:58;;;;;;;;;;;15.20;99.90;;;;;;4959729;28;20021;-64
2024/03/19 13:06:23;;;;;;;;;;;15.30;99.90;;;;;;4971745;28;20457;-64
2024/03/19 13:08:49;;;;;;;;;;;15.30;99.90;;;;;;4987085;28;19930;-63
2024/03/19 13:11:16;;;;;;;;;;;15.20;99.90;;;;;;4970792;28;20335;-63
2024/03/19 13:13:42;;;;;;;;;;;15.10;99.90;;;;;;4958052;28;19929;-64
2024/03/19 13:16:08;;;;;;;;;;;15.00;99.90;;;;;;4968038;28;19976;-64
2024/03/19 13:18:34;;;;;;;;;;;14.90;99.90;;;;;;4974429;28;19925;-63
2024/03/19 13:21:00;;;;;;;;;;;15.00;99.90;;;;;;4993158;28;19934;-64
2024/03/19 13:23:26;;;;;;;;;;;14.90;99.90;;;;;;4982515;28;19934;-64
2024/03/19 13:25:52;;;;;;;;;;;14.80;99.90;;;;;;4964813;28;19929;-64
2024/03/19 13:28:18;;;;;;;;;;;14.90;99.90;;;;;;4972741;28;19926;-64
2024/03/19 13:30:44;;;;;;;;;;;14.90;99.90;;;;;;4969067;28;19941;-64
2024/03/19 13:33:10;;;;;;;;;;;15.00;99.90;;;;;;4976966;28;20391;-64
2024/03/19 13:35:36;;;;;;;;;;;15.20;99.90;;;;;;4979807;28;19937;-64
2024/03/19 13:38:03;;;;;;;;;;;15.30;99.90;;;;;;4960853;28;19930;-63
2024/03/19 13:40:32;;;;;;;;;;;15.40;99.90;;;;;;4969110;28;20736;-64
2024/03/19 13:42:58;;;;;;;;;;;15.60;99.90;;;;;;4971068;28;19937;-64
2024/03/19 13:45:25;;;;;;;;;;;15.70;99.90;;;;;;4969422;28;19925;-64
2024/03/19 13:47:51;;;;;;;;;;;15.80;99.90;;;;;;4968328;28;19930;-64
2024/03/19 13:50:17;;;;;;;;;;;15.90;99.90;;;;;;4966860;28;19941;-64
2024/03/19 13:52:43;;;;;;;;;;;16.00;99.90;;;;;;4987281;28;19930;-64
2024/03/19 13:55:09;;;;;;;;;;;16.00;99.90;;;;;;4968272;28;19926;-64
2024/03/19 13:57:35;;;;;;;;;;;16.20;99.90;;;;;;4979658;28;20020;-64
2024/03/19 14:00:05;;;;;;;;;;;16.30;99.90;;;;;;4981003;28;19938;-64
2024/03/19 14:02:35;;;;;;;;;;;16.40;99.90;;;;;;4967704;28;20021;-64
2024/03/19 14:05:02;;;;;;;;;;;16.50;99.90;;;;;;4965378;28;20397;-64
2024/03/19 14:07:32;;;;;;;;;;;16.60;99.90;;;;;;4958510;28;19933;-64
2024/03/19 14:10:01;;;;;;;;;;;16.60;99.90;;;;;;4977161;28;19930;-63
2024/03/19 14:12:28;;;;;;;;;;;16.50;99.90;;;;;;4970289;28;19937;-64
2024/03/19 14:14:54;;;;;;;;;;;16.50;99.90;;;;;;4971629;28;19925;-63
2024/03/19 14:17:20;;;;;;;;;;;16.30;99.90;;;;;;4972004;28;19930;-63
2024/03/19 14:19:46;;;;;;;;;;;16.30;99.90;;;;;;4970910;28;19932;-63